createdAt,value
2023-05-02T00:00:31.879Z,17.10
2023-05-02T00:02:58.715Z,18.03
2023-05-02T00:05:25.826Z,17.77
2023-05-02T00:07:52.621Z,18.97
2023-05-02T00:10:19.401Z,19.53
2023-05-02T00:12:46.100Z,19.10
2023-05-02T00:15:12.687Z,20.33
2023-05-02T00:17:42.947Z,22.60
2023-05-02T00:20:11.613Z,20.17
2023-05-02T00:22:38.585Z,20.80
2023-05-02T00:25:05.863Z,22.60
2023-05-02T00:27:33.306Z,22.33
2023-05-02T00:30:00.504Z,28.00
2023-05-02T00:32:28.157Z,27.10
2023-05-02T00:34:54.734Z,31.23
2023-05-02T00:37:21.336Z,29.93
2023-05-02T00:39:47.801Z,33.43
2023-05-02T00:42:14.267Z,30.83
2023-05-02T00:44:40.781Z,32.20
2023-05-02T00:47:07.354Z,29.40
2023-05-02T00:49:33.831Z,31.90
2023-05-02T00:52:00.593Z,31.33
2023-05-02T00:54:27.132Z,32.70
2023-05-02T00:56:53.564Z,31.83
2023-05-02T00:59:20.351Z,31.17
2023-05-02T01:01:58.502Z,30.47
2023-05-02T01:04:36.915Z,29.80
2023-05-02T01:07:19.042Z,32.90
2023-05-02T01:10:18.016Z,27.33
2023-05-02T01:12:48.370Z,30.63
2023-05-02T01:15:20.693Z,29.00
2023-05-02T01:17:47.757Z,31.33
2023-05-02T01:20:17.445Z,30.10
2023-05-02T01:22:44.739Z,30.80
2023-05-02T01:25:26.706Z,32.80
2023-05-02T01:28:17.682Z,32.13
2023-05-02T01:30:46.269Z,32.50
2023-05-02T01:33:15.505Z,36.33
2023-05-02T01:35:42.953Z,35.53
2023-05-02T01:38:09.995Z,37.43
2023-05-02T01:40:37.065Z,37.20
2023-05-02T01:43:05.958Z,37.37
2023-05-02T01:45:33.439Z,35.90
2023-05-02T01:48:00.899Z,36.80
2023-05-02T01:50:27.739Z,35.33
2023-05-02T01:52:55.610Z,34.93
2023-05-02T01:55:23.642Z,36.07
2023-05-02T01:57:51.684Z,34.60
2023-05-02T02:00:18.755Z,34.53
2023-05-02T02:02:46.688Z,33.83
2023-05-02T02:05:14.241Z,34.87
2023-05-02T02:07:40.782Z,35.50
2023-05-02T02:10:07.866Z,35.60
2023-05-02T02:12:42.902Z,35.83
2023-05-02T02:15:16.301Z,36.50
2023-05-02T02:18:02.630Z,35.77
2023-05-02T02:20:30.137Z,35.90
2023-05-02T02:22:57.400Z,43.87
2023-05-02T02:25:24.586Z,41.00
2023-05-02T02:27:51.721Z,41.00
2023-05-02T02:30:18.512Z,41.37
2023-05-02T02:32:45.151Z,41.40
2023-05-02T02:35:12.026Z,41.27
2023-05-02T02:37:42.047Z,37.90
2023-05-02T02:40:17.940Z,36.27
2023-05-02T02:43:06.106Z,36.43
2023-05-02T02:45:40.010Z,39.00
2023-05-02T02:48:28.660Z,41.03
2023-05-02T02:51:09.638Z,42.80
2023-05-02T02:54:05.907Z,41.37
2023-05-02T02:56:39.698Z,43.57
2023-05-02T02:59:12.534Z,43.90
2023-05-02T03:01:43.609Z,41.47
2023-05-02T03:04:11.132Z,42.40
2023-05-02T03:06:38.101Z,42.33
2023-05-02T03:09:04.740Z,39.60
2023-05-02T03:11:31.283Z,40.43
2023-05-02T03:13:57.840Z,39.40
2023-05-02T03:16:38.401Z,40.20
2023-05-02T03:19:05.834Z,41.47
2023-05-02T03:21:32.900Z,38.80
2023-05-02T03:24:00.673Z,40.50
2023-05-02T03:26:27.538Z,42.03
2023-05-02T03:28:55.572Z,38.13
2023-05-02T03:31:24.065Z,38.13
2023-05-02T03:33:53.088Z,34.07
2023-05-02T03:36:19.875Z,36.50
2023-05-02T03:38:46.400Z,35.23
2023-05-02T03:41:13.578Z,34.47
2023-05-02T03:43:40.304Z,35.73
2023-05-02T03:46:09.175Z,36.60
2023-05-02T03:48:35.772Z,35.10
2023-05-02T03:51:03.837Z,35.60
2023-05-02T03:53:33.720Z,33.40
2023-05-02T03:56:00.469Z,35.07
2023-05-02T03:58:27.271Z,34.90
2023-05-02T04:00:54.267Z,29.43
2023-05-02T04:03:21.223Z,33.07
2023-05-02T04:05:48.049Z,31.17
2023-05-02T04:08:14.759Z,31.70
2023-05-02T04:10:41.220Z,31.60
2023-05-02T04:13:07.790Z,32.87
2023-05-02T04:15:34.288Z,30.30
2023-05-02T04:18:00.908Z,27.40
2023-05-02T04:20:27.478Z,27.70
2023-05-02T04:22:54.049Z,28.50
2023-05-02T04:25:20.936Z,29.10
2023-05-02T04:27:47.626Z,28.80
2023-05-02T04:30:14.459Z,28.20
2023-05-02T04:32:40.997Z,29.33
2023-05-02T04:35:07.864Z,29.50
2023-05-02T04:37:34.680Z,27.90
2023-05-02T04:40:01.388Z,29.03
2023-05-02T04:42:28.020Z,27.67
2023-05-02T04:44:54.512Z,27.47
2023-05-02T04:47:21.153Z,27.17
2023-05-02T04:49:48.082Z,27.23
2023-05-02T04:52:14.889Z,26.40
2023-05-02T04:54:41.342Z,26.77
2023-05-02T04:57:09.866Z,26.23
2023-05-02T04:59:37.085Z,26.47
2023-05-02T05:02:03.708Z,26.17
2023-05-02T05:04:30.708Z,23.83
2023-05-02T05:06:57.336Z,24.10
2023-05-02T05:09:23.813Z,25.37
2023-05-02T05:11:50.325Z,23.30
2023-05-02T05:14:17.140Z,24.77
2023-05-02T05:16:43.847Z,24.07
2023-05-02T05:19:10.330Z,23.17
2023-05-02T05:21:36.947Z,23.67
2023-05-02T05:24:03.659Z,22.33
2023-05-02T05:26:30.162Z,22.67
2023-05-02T05:28:56.771Z,20.00
2023-05-02T05:31:24.367Z,20.70
2023-05-02T05:33:50.998Z,20.47
2023-05-02T05:36:17.802Z,20.60
2023-05-02T05:38:44.673Z,20.30
2023-05-02T05:41:11.215Z,21.50
2023-05-02T05:43:38.400Z,18.20
2023-05-02T05:46:05.286Z,16.23
2023-05-02T05:48:31.902Z,17.03
2023-05-02T05:50:58.406Z,13.60
2023-05-02T05:53:24.884Z,12.50
2023-05-02T05:55:51.435Z,12.77
2023-05-02T05:58:17.963Z,9.93
2023-05-02T06:00:44.518Z,9.23
2023-05-02T06:03:11.416Z,9.97
2023-05-02T06:05:37.988Z,9.13
2023-05-02T06:08:04.729Z,8.10
2023-05-02T06:10:31.580Z,8.03
2023-05-02T06:12:58.355Z,6.80
2023-05-02T06:15:24.930Z,6.90
2023-05-02T06:17:52.446Z,6.77
2023-05-02T06:20:19.146Z,6.10
2023-05-02T06:22:45.925Z,5.87
2023-05-02T06:25:12.431Z,6.20
2023-05-02T06:27:38.868Z,5.90
2023-05-02T06:30:06.548Z,5.50
2023-05-02T06:32:33.172Z,5.50
2023-05-02T06:35:00.198Z,5.47
2023-05-02T06:37:27.088Z,5.67
2023-05-02T06:39:53.620Z,4.60
2023-05-02T06:42:20.593Z,4.30
2023-05-02T06:44:47.148Z,4.73
2023-05-02T06:47:14.022Z,4.20
2023-05-02T06:49:40.599Z,4.60
2023-05-02T06:52:07.071Z,4.50
2023-05-02T06:54:33.522Z,4.37
2023-05-02T06:56:59.987Z,5.30
2023-05-02T06:59:26.414Z,4.80
2023-05-02T07:01:52.906Z,4.13
2023-05-02T07:04:19.490Z,4.73
2023-05-02T07:06:46.617Z,4.50
2023-05-02T07:09:13.236Z,4.30
2023-05-02T07:11:39.742Z,4.20
2023-05-02T07:14:06.458Z,3.97
2023-05-02T07:16:33.006Z,4.10
2023-05-02T07:19:01.592Z,4.77
2023-05-02T07:21:28.501Z,4.20
2023-05-02T07:23:57.558Z,5.00
2023-05-02T07:26:25.285Z,4.80
2023-05-02T07:28:51.952Z,3.67
2023-05-02T07:31:19.014Z,3.93
2023-05-02T07:33:45.724Z,3.87
2023-05-02T07:36:12.211Z,4.23
2023-05-02T07:38:38.726Z,4.10
2023-05-02T07:41:05.370Z,4.40
2023-05-02T07:43:32.404Z,3.73
2023-05-02T07:46:04.182Z,4.10
2023-05-02T07:48:31.158Z,3.00
2023-05-02T07:51:06.171Z,3.60
2023-05-02T07:53:32.738Z,3.20
2023-05-02T07:55:59.513Z,3.70
2023-05-02T07:58:25.978Z,3.77
2023-05-02T08:00:52.636Z,3.80
2023-05-02T08:03:19.212Z,3.43
2023-05-02T08:05:45.799Z,3.47
2023-05-02T08:08:12.303Z,3.60
2023-05-02T08:10:38.898Z,3.83
2023-05-02T08:13:05.408Z,3.70
2023-05-02T08:15:31.943Z,3.90
2023-05-02T08:17:59.786Z,3.80
2023-05-02T08:20:26.368Z,4.60
2023-05-02T08:22:53.153Z,3.60
2023-05-02T08:25:19.681Z,4.10
2023-05-02T08:27:46.445Z,4.20
2023-05-02T08:30:13.349Z,3.90
2023-05-02T08:32:40.121Z,5.27
2023-05-02T08:35:07.103Z,4.97
2023-05-02T08:37:33.992Z,5.30
2023-05-02T08:40:01.107Z,5.60
2023-05-02T08:42:28.982Z,5.73
2023-05-02T08:44:55.414Z,5.37
2023-05-02T08:47:22.797Z,5.73
2023-05-02T08:49:50.130Z,5.97
2023-05-02T08:52:20.080Z,5.77
2023-05-02T08:54:46.713Z,5.90
2023-05-02T08:57:13.531Z,5.30
2023-05-02T08:59:40.061Z,6.00
2023-05-02T09:02:28.826Z,5.60
2023-05-02T09:04:56.976Z,5.53
2023-05-02T09:07:23.555Z,5.57
2023-05-02T09:09:50.266Z,6.80
2023-05-02T09:12:17.037Z,6.27
2023-05-02T09:14:44.793Z,5.37
2023-05-02T09:17:11.441Z,5.10
2023-05-02T09:19:37.952Z,5.70
2023-05-02T09:22:04.468Z,7.37
2023-05-02T09:24:31.083Z,6.93
2023-05-02T09:27:04.234Z,5.77
2023-05-02T09:29:35.888Z,5.70
2023-05-02T09:32:04.126Z,4.50
2023-05-02T09:34:33.738Z,4.70
2023-05-02T09:37:00.381Z,4.70
2023-05-02T09:39:31.457Z,4.53
2023-05-02T09:41:58.894Z,5.53
2023-05-02T09:44:27.644Z,5.10
2023-05-02T09:46:55.945Z,5.40
2023-05-02T09:49:57.993Z,3.57
2023-05-02T09:52:24.582Z,4.87
2023-05-02T09:54:52.854Z,4.40
2023-05-02T09:57:19.832Z,5.20
2023-05-02T09:59:56.780Z,4.57
2023-05-02T10:02:24.673Z,6.10
2023-05-02T10:04:53.673Z,5.50
2023-05-02T10:07:20.594Z,4.90
2023-05-02T10:09:49.678Z,4.67
2023-05-02T10:12:17.047Z,5.40
2023-05-02T10:14:50.184Z,5.67
2023-05-02T10:17:23.635Z,6.60
2023-05-02T10:20:07.591Z,6.37
2023-05-02T10:22:35.305Z,5.43
2023-05-02T10:25:03.654Z,5.03
2023-05-02T10:27:32.190Z,4.83
2023-05-02T10:30:00.528Z,5.53
2023-05-02T10:32:30.092Z,5.47
2023-05-02T10:34:57.805Z,5.07
2023-05-02T10:37:26.565Z,6.00
2023-05-02T10:39:53.120Z,5.43
2023-05-02T10:42:20.334Z,4.60
2023-05-02T10:44:47.728Z,4.43
2023-05-02T10:47:27.393Z,5.43
2023-05-02T10:50:01.978Z,4.80
2023-05-02T10:52:34.158Z,4.83
2023-05-02T10:55:23.658Z,4.60
2023-05-02T10:58:05.423Z,5.70
2023-05-02T11:00:33.750Z,4.53
2023-05-02T11:03:01.514Z,4.60
2023-05-02T11:05:28.456Z,4.77
2023-05-02T11:08:20.074Z,4.47
2023-05-02T11:10:47.266Z,4.93
2023-05-02T11:13:13.838Z,5.13
2023-05-02T11:15:40.374Z,5.50
2023-05-02T11:18:08.305Z,4.63
2023-05-02T11:20:36.838Z,4.67
2023-05-02T11:23:15.883Z,6.43
2023-05-02T11:25:44.753Z,4.60
2023-05-02T11:28:39.414Z,5.60
2023-05-02T11:31:55.622Z,7.13
2023-05-02T11:34:22.285Z,4.30
2023-05-02T11:36:48.817Z,3.83
2023-05-02T11:39:19.562Z,3.70
2023-05-02T11:41:48.308Z,5.33
2023-05-02T11:44:15.012Z,7.60
2023-05-02T11:46:41.996Z,4.20
2023-05-02T11:49:09.802Z,7.27
2023-05-02T11:51:37.359Z,4.33
2023-05-02T11:54:03.998Z,7.57
2023-05-02T11:56:31.427Z,3.90
2023-05-02T11:59:01.838Z,4.13
2023-05-02T12:01:28.420Z,4.37
2023-05-02T12:04:08.268Z,4.40
2023-05-02T12:06:35.471Z,4.00
2023-05-02T12:09:10.155Z,4.50
2023-05-02T12:11:38.197Z,4.33
2023-05-02T12:14:08.059Z,4.87
2023-05-02T12:16:35.014Z,4.53
2023-05-02T12:19:01.846Z,4.20
2023-05-02T12:21:33.392Z,3.90
2023-05-02T12:24:01.774Z,4.30
2023-05-02T12:26:30.916Z,3.60
2023-05-02T12:28:58.909Z,3.60
2023-05-02T12:31:28.150Z,3.20
2023-05-02T12:33:57.509Z,3.10
2023-05-02T12:36:24.454Z,3.47
2023-05-02T12:38:55.133Z,4.23
2023-05-02T12:41:38.623Z,4.30
2023-05-02T12:44:06.091Z,3.53
2023-05-02T12:46:33.048Z,3.57
2023-05-02T12:49:02.841Z,3.07
2023-05-02T12:51:31.526Z,3.10
2023-05-02T12:53:58.225Z,3.40
2023-05-02T12:56:27.589Z,4.50
2023-05-02T12:58:54.144Z,4.53
2023-05-02T13:01:20.791Z,4.20
2023-05-02T13:03:47.977Z,4.97
2023-05-02T13:06:14.518Z,3.80
2023-05-02T13:08:41.180Z,4.17
2023-05-02T13:11:07.963Z,5.40
2023-05-02T13:13:35.514Z,3.47
2023-05-02T13:16:02.329Z,3.90
2023-05-02T13:18:28.984Z,3.73
2023-05-02T13:20:55.608Z,3.60
2023-05-02T13:23:22.278Z,4.00
2023-05-02T13:25:48.796Z,4.10
2023-05-02T13:28:15.432Z,4.33
2023-05-02T13:30:42.252Z,3.83
2023-05-02T13:33:09.087Z,4.10
2023-05-02T13:35:36.081Z,3.90
2023-05-02T13:38:03.362Z,3.60
2023-05-02T13:40:29.909Z,4.23
2023-05-02T13:42:56.457Z,3.77
2023-05-02T13:45:23.132Z,3.97
2023-05-02T13:47:49.931Z,4.10
2023-05-02T13:50:16.661Z,4.73
2023-05-02T13:52:43.233Z,4.47
2023-05-02T13:55:09.863Z,5.17
2023-05-02T13:57:36.403Z,4.83
2023-05-02T14:00:04.856Z,4.50
2023-05-02T14:02:31.662Z,4.60
2023-05-02T14:04:58.447Z,4.47
2023-05-02T14:07:24.906Z,4.87
2023-05-02T14:09:51.433Z,4.57
2023-05-02T14:12:18.004Z,4.43
2023-05-02T14:14:44.501Z,5.17
2023-05-02T14:17:11.008Z,5.87
2023-05-02T14:19:37.527Z,5.70
2023-05-02T14:22:04.057Z,6.03
2023-05-02T14:24:30.575Z,5.23
2023-05-02T14:26:58.342Z,5.10
2023-05-02T14:29:24.818Z,5.33
2023-05-02T14:31:51.644Z,5.13
2023-05-02T14:34:18.365Z,4.93
2023-05-02T14:36:44.913Z,5.23
2023-05-02T14:39:11.515Z,4.97
2023-05-02T14:41:37.997Z,5.80
2023-05-02T14:44:04.715Z,5.63
2023-05-02T14:46:31.249Z,6.00
2023-05-02T14:48:57.864Z,4.90
2023-05-02T14:51:24.547Z,4.90
2023-05-02T14:53:51.385Z,6.07
2023-05-02T14:56:18.759Z,6.10
2023-05-02T14:58:45.485Z,5.57
2023-05-02T15:01:19.260Z,5.70
2023-05-02T15:04:04.196Z,5.57
2023-05-02T15:06:31.577Z,6.17
2023-05-02T15:08:58.162Z,6.50
2023-05-02T15:11:25.244Z,5.50
2023-05-02T15:13:51.750Z,6.60
2023-05-02T15:16:18.505Z,6.53
2023-05-02T15:18:45.413Z,6.03
2023-05-02T15:21:11.998Z,6.07
2023-05-02T15:23:38.507Z,5.77
2023-05-02T15:26:05.465Z,6.43
2023-05-02T15:28:31.952Z,5.83
2023-05-02T15:30:58.587Z,5.80
2023-05-02T15:33:25.128Z,5.67
2023-05-02T15:35:58.481Z,6.17
2023-05-02T15:38:25.183Z,5.83
2023-05-02T15:40:58.371Z,6.50
2023-05-02T15:43:25.418Z,6.60
2023-05-02T15:45:56.591Z,6.03
2023-05-02T15:48:23.997Z,5.37
2023-05-02T15:50:52.429Z,6.87
2023-05-02T15:53:22.146Z,5.60
2023-05-02T15:55:50.126Z,5.03
2023-05-02T15:58:17.619Z,5.67
2023-05-02T16:00:44.879Z,5.07
2023-05-02T16:03:15.377Z,6.43
2023-05-02T16:05:42.114Z,5.50
2023-05-02T16:08:08.979Z,5.10
2023-05-02T16:10:36.570Z,10.20
2023-05-02T16:13:03.563Z,7.57
2023-05-02T16:15:30.512Z,5.23
2023-05-02T16:17:57.554Z,5.57
2023-05-02T16:20:24.313Z,4.60
2023-05-02T16:22:51.567Z,6.00
2023-05-02T16:25:18.852Z,5.27
2023-05-02T16:27:45.779Z,6.03
2023-05-02T16:30:12.849Z,5.33
2023-05-02T16:32:39.755Z,4.70
2023-05-02T16:35:08.288Z,5.77
2023-05-02T16:37:35.758Z,5.57
2023-05-02T16:40:05.403Z,5.97
2023-05-02T16:42:32.555Z,5.90
2023-05-02T16:44:59.130Z,5.60
2023-05-02T16:47:26.883Z,6.00
2023-05-02T16:49:57.336Z,5.93
2023-05-02T16:52:25.489Z,6.37
2023-05-02T16:54:52.879Z,5.63
2023-05-02T16:57:20.890Z,5.37
2023-05-02T16:59:48.147Z,6.30
2023-05-02T17:02:15.084Z,6.00
2023-05-02T17:04:41.905Z,5.83
2023-05-02T17:07:08.844Z,6.20
2023-05-02T17:09:37.249Z,7.43
2023-05-02T17:12:04.927Z,6.27
2023-05-02T17:14:34.382Z,5.60
2023-05-02T17:17:01.126Z,5.27
2023-05-02T17:19:27.945Z,5.50
2023-05-02T17:21:55.723Z,5.83
2023-05-02T17:24:22.318Z,4.97
2023-05-02T17:26:49.215Z,5.50
2023-05-02T17:29:15.765Z,6.37
2023-05-02T17:31:42.963Z,6.33
2023-05-02T17:34:09.581Z,5.80
2023-05-02T17:36:36.646Z,5.90
2023-05-02T17:39:03.950Z,5.30
2023-05-02T17:41:31.264Z,5.67
2023-05-02T17:43:57.940Z,5.47
2023-05-02T17:46:24.511Z,5.30
2023-05-02T17:48:52.044Z,5.23
2023-05-02T17:51:18.603Z,6.00
2023-05-02T17:53:45.766Z,5.43
2023-05-02T17:56:14.227Z,4.60
2023-05-02T17:58:40.841Z,5.70
2023-05-02T18:01:08.683Z,5.53
2023-05-02T18:03:35.757Z,4.80
2023-05-02T18:06:02.480Z,4.80
2023-05-02T18:08:31.260Z,5.03
2023-05-02T18:10:58.763Z,4.70
2023-05-02T18:13:26.485Z,5.13
2023-05-02T18:15:57.117Z,5.57
2023-05-02T18:18:23.905Z,4.83
2023-05-02T18:20:50.383Z,4.60
2023-05-02T18:23:17.050Z,4.70
2023-05-02T18:25:44.104Z,4.40
2023-05-02T18:28:10.737Z,4.20
2023-05-02T18:30:37.955Z,4.07
2023-05-02T18:33:05.126Z,4.60
2023-05-02T18:35:31.811Z,4.43
2023-05-02T18:37:58.548Z,5.30
2023-05-02T18:40:25.159Z,5.10
2023-05-02T18:42:51.801Z,4.70
2023-05-02T18:45:18.526Z,5.03
2023-05-02T18:47:45.038Z,6.83
2023-05-02T18:50:11.519Z,5.00
2023-05-02T18:52:38.073Z,4.00
2023-05-02T18:55:06.116Z,3.60
2023-05-02T18:57:33.881Z,4.00
2023-05-02T19:00:00.701Z,3.40
2023-05-02T19:02:27.492Z,3.27
2023-05-02T19:04:54.128Z,3.73
2023-05-02T19:07:20.702Z,3.97
2023-05-02T19:09:47.193Z,3.60
2023-05-02T19:12:13.645Z,4.13
2023-05-02T19:14:40.279Z,5.13
2023-05-02T19:17:06.877Z,3.87
2023-05-02T19:19:33.599Z,3.43
2023-05-02T19:22:00.322Z,3.60
2023-05-02T19:24:26.992Z,3.70
2023-05-02T19:26:53.650Z,3.07
2023-05-02T19:29:20.600Z,3.90
2023-05-02T19:31:47.159Z,3.90
2023-05-02T19:34:13.700Z,4.20
2023-05-02T19:36:40.652Z,4.03
2023-05-02T19:39:07.532Z,3.90
2023-05-02T19:41:34.523Z,4.40
2023-05-02T19:44:01.018Z,4.37
2023-05-02T19:46:27.702Z,3.70
2023-05-02T19:48:55.439Z,4.73
2023-05-02T19:51:25.326Z,4.33
2023-05-02T19:53:53.042Z,4.67
2023-05-02T19:56:25.316Z,5.87
2023-05-02T19:58:51.850Z,5.40
2023-05-02T20:01:18.529Z,6.30
2023-05-02T20:03:45.427Z,6.80
2023-05-02T20:06:12.069Z,5.93
2023-05-02T20:08:38.806Z,5.47
2023-05-02T20:11:05.301Z,6.20
2023-05-02T20:13:31.848Z,5.60
2023-05-02T20:15:58.381Z,5.30
2023-05-02T20:18:24.944Z,5.20
2023-05-02T20:20:51.700Z,5.97
2023-05-02T20:23:18.257Z,6.40
2023-05-02T20:25:44.946Z,6.10
2023-05-02T20:28:11.632Z,6.27
2023-05-02T20:30:39.802Z,7.20
2023-05-02T20:33:14.684Z,6.70
2023-05-02T20:35:42.604Z,6.20
2023-05-02T20:38:09.740Z,6.10
2023-05-02T20:40:40.711Z,5.97
2023-05-02T20:43:07.726Z,6.70
2023-05-02T20:45:34.234Z,6.20
2023-05-02T20:48:00.876Z,6.70
2023-05-02T20:50:28.307Z,7.23
2023-05-02T20:52:55.268Z,9.03
2023-05-02T20:55:22.939Z,9.60
2023-05-02T20:57:53.192Z,8.70
2023-05-02T21:00:22.367Z,9.17
2023-05-02T21:02:49.069Z,9.67
2023-05-02T21:05:15.705Z,8.20
2023-05-02T21:07:42.229Z,8.00
2023-05-02T21:10:10.252Z,7.80
2023-05-02T21:12:36.880Z,8.20
2023-05-02T21:15:03.632Z,7.87
2023-05-02T21:17:30.402Z,8.13
2023-05-02T21:19:56.961Z,7.80
2023-05-02T21:22:23.627Z,7.80
2023-05-02T21:24:50.851Z,7.73
2023-05-02T21:27:17.377Z,7.60
2023-05-02T21:29:43.905Z,7.60
2023-05-02T21:32:10.737Z,7.60
2023-05-02T21:34:37.384Z,7.10
2023-05-02T21:37:04.143Z,7.50
2023-05-02T21:39:30.661Z,7.43
2023-05-02T21:41:57.357Z,6.20
2023-05-02T21:44:23.885Z,6.70
2023-05-02T21:46:51.721Z,6.50
2023-05-02T21:49:18.478Z,6.17
2023-05-02T21:51:44.953Z,5.83
2023-05-02T21:54:11.623Z,6.23
2023-05-02T21:56:38.118Z,5.60
2023-05-02T21:59:04.697Z,5.80
2023-05-02T22:01:31.280Z,5.80
2023-05-02T22:03:58.035Z,6.13
2023-05-02T22:06:25.110Z,7.17
2023-05-02T22:08:52.746Z,6.17
2023-05-02T22:11:21.662Z,6.03
2023-05-02T22:13:48.571Z,6.97
2023-05-02T22:16:15.453Z,7.60
2023-05-02T22:18:45.094Z,6.20
2023-05-02T22:21:12.076Z,6.50
2023-05-02T22:23:38.941Z,6.10
2023-05-02T22:26:05.513Z,6.60
2023-05-02T22:28:33.997Z,7.67
2023-05-02T22:31:00.585Z,7.30
2023-05-02T22:33:27.219Z,7.23
2023-05-02T22:35:53.857Z,7.07
2023-05-02T22:38:20.699Z,7.07
2023-05-02T22:40:47.291Z,8.00
2023-05-02T22:43:14.028Z,6.40
2023-05-02T22:45:40.692Z,6.00
2023-05-02T22:48:07.988Z,27.60
2023-05-02T22:50:34.532Z,23.97
2023-05-02T22:53:03.599Z,10.60
2023-05-02T22:55:30.149Z,9.30
2023-05-02T22:57:57.168Z,8.73
2023-05-02T23:00:25.183Z,9.77
2023-05-02T23:02:51.978Z,9.47
2023-05-02T23:05:18.894Z,8.80
2023-05-02T23:07:45.554Z,8.73
2023-05-02T23:10:12.132Z,8.60
2023-05-02T23:12:39.120Z,7.83
2023-05-02T23:15:06.853Z,7.17
2023-05-02T23:17:33.486Z,7.20
2023-05-02T23:20:00.248Z,7.90
2023-05-02T23:22:27.032Z,6.77
2023-05-02T23:24:53.843Z,6.87
2023-05-02T23:27:20.650Z,6.87
2023-05-02T23:29:48.938Z,7.20
2023-05-02T23:32:16.270Z,6.70
2023-05-02T23:34:43.513Z,7.20
2023-05-02T23:37:11.496Z,7.27
2023-05-02T23:39:38.274Z,6.20
2023-05-02T23:42:05.120Z,6.70
2023-05-02T23:44:31.641Z,7.20
2023-05-02T23:46:59.489Z,6.80
2023-05-02T23:49:26.415Z,6.63
2023-05-02T23:51:53.283Z,5.97
2023-05-02T23:54:19.757Z,7.43
2023-05-02T23:56:46.968Z,5.67
2023-05-02T23:59:13.475Z,6.37
